createdAt,value
2019-04-04T00:00:11.430Z,29.93
2019-04-04T00:02:37.127Z,25.90
2019-04-04T00:05:03.679Z,25.13
2019-04-04T00:07:29.781Z,24.87
2019-04-04T00:09:55.456Z,24.30
2019-04-04T00:12:21.050Z,22.90
2019-04-04T00:14:46.653Z,23.10
2019-04-04T00:17:12.188Z,20.80
2019-04-04T00:19:37.743Z,19.93
2019-04-04T00:22:04.926Z,19.97
2019-04-04T00:24:30.719Z,19.47
2019-04-04T00:26:56.285Z,18.77
2019-04-04T00:29:21.932Z,19.60
2019-04-04T00:31:49.544Z,19.80
2019-04-04T00:34:14.912Z,18.57
2019-04-04T00:36:40.435Z,17.43
2019-04-04T00:39:09.133Z,17.50
2019-04-04T00:41:34.154Z,16.87
2019-04-04T00:44:00.095Z,16.20
2019-04-04T00:46:25.631Z,15.70
2019-04-04T00:48:51.375Z,14.60
2019-04-04T00:51:16.919Z,16.27
2019-04-04T00:53:42.980Z,16.77
2019-04-04T00:56:09.351Z,15.97
2019-04-04T00:58:34.879Z,16.87
2019-04-04T01:01:00.416Z,16.07
2019-04-04T01:03:28.080Z,15.30
2019-04-04T01:05:54.351Z,15.13
2019-04-04T01:08:20.592Z,16.07
2019-04-04T01:10:46.112Z,15.70
2019-04-04T01:13:11.644Z,14.70
2019-04-04T01:15:37.424Z,14.67
2019-04-04T01:18:03.980Z,13.80
2019-04-04T01:20:30.960Z,13.43
2019-04-04T01:22:56.743Z,12.43
2019-04-04T01:25:22.322Z,14.70
2019-04-04T01:27:47.920Z,12.87
2019-04-04T01:30:14.697Z,12.87
2019-04-04T01:32:40.237Z,11.30
2019-04-04T01:35:06.105Z,12.53
2019-04-04T01:37:31.632Z,11.77
2019-04-04T01:39:57.190Z,11.23
2019-04-04T01:42:22.983Z,11.20
2019-04-04T01:44:48.627Z,11.27
2019-04-04T01:47:14.942Z,12.67
2019-04-04T01:49:41.631Z,11.97
2019-04-04T01:52:07.171Z,11.77
2019-04-04T01:54:32.850Z,12.67
2019-04-04T01:56:58.444Z,11.97
2019-04-04T01:59:24.005Z,13.17
2019-04-04T02:01:49.580Z,12.37
2019-04-04T02:04:15.418Z,11.40
2019-04-04T02:06:40.960Z,12.53
2019-04-04T02:09:06.563Z,13.10
2019-04-04T02:11:32.131Z,12.33
2019-04-04T02:13:57.768Z,11.90
2019-04-04T02:16:23.336Z,12.90
2019-04-04T02:18:48.925Z,13.27
2019-04-04T02:21:14.611Z,13.00
2019-04-04T02:23:41.163Z,12.60
2019-04-04T02:26:06.677Z,12.40
2019-04-04T02:28:32.626Z,12.60
2019-04-04T02:30:58.527Z,12.60
2019-04-04T02:33:24.141Z,14.50
2019-04-04T02:35:49.679Z,13.30
2019-04-04T02:38:15.284Z,12.87
2019-04-04T02:40:41.916Z,14.23
2019-04-04T02:43:07.927Z,14.90
2019-04-04T02:45:35.643Z,14.30
2019-04-04T02:48:00.887Z,15.00
2019-04-04T02:50:26.452Z,14.77
2019-04-04T02:52:53.041Z,13.13
2019-04-04T02:55:18.764Z,12.33
2019-04-04T02:57:44.320Z,14.40
2019-04-04T03:00:13.502Z,13.60
2019-04-04T03:02:39.302Z,14.20
2019-04-04T03:05:04.862Z,14.53
2019-04-04T03:07:31.191Z,14.47
2019-04-04T03:09:56.839Z,15.00
2019-04-04T03:12:25.714Z,15.07
2019-04-04T03:14:50.733Z,14.60
2019-04-04T03:17:16.773Z,16.27
2019-04-04T03:19:43.556Z,15.00
2019-04-04T03:22:09.739Z,15.20
2019-04-04T03:24:38.869Z,16.33
2019-04-04T03:27:02.723Z,15.23
2019-04-04T03:29:28.326Z,16.00
2019-04-04T03:31:54.897Z,16.90
2019-04-04T03:34:20.636Z,16.83
2019-04-04T03:36:46.210Z,15.97
2019-04-04T03:39:11.877Z,16.47
2019-04-04T03:41:37.458Z,17.37
2019-04-04T03:44:03.079Z,16.00
2019-04-04T03:46:33.664Z,17.10
2019-04-04T03:48:56.060Z,17.60
2019-04-04T03:51:21.843Z,17.10
2019-04-04T03:53:50.277Z,16.97
2019-04-04T03:56:16.236Z,18.40
2019-04-04T03:58:41.764Z,17.70
2019-04-04T04:01:07.296Z,18.63
2019-04-04T04:03:32.924Z,19.33
2019-04-04T04:05:58.563Z,32.97
2019-04-04T04:08:24.194Z,18.97
2019-04-04T04:10:49.736Z,18.40
2019-04-04T04:13:17.377Z,17.90
2019-04-04T04:15:42.878Z,17.63
2019-04-04T04:18:08.424Z,18.80
2019-04-04T04:20:36.271Z,18.73
2019-04-04T04:23:01.485Z,17.57
2019-04-04T04:25:28.046Z,16.40
2019-04-04T04:27:53.599Z,16.13
2019-04-04T04:30:19.173Z,17.13
2019-04-04T04:32:44.755Z,15.90
2019-04-04T04:35:10.321Z,15.63
2019-04-04T04:37:35.993Z,15.70
2019-04-04T04:40:01.627Z,16.70
2019-04-04T04:42:27.565Z,15.37
2019-04-04T04:44:53.160Z,15.27
2019-04-04T04:47:22.955Z,18.10
2019-04-04T04:49:46.457Z,15.93
2019-04-04T04:52:14.226Z,16.43
2019-04-04T04:54:39.746Z,16.60
2019-04-04T04:57:05.889Z,18.20
2019-04-04T04:59:32.408Z,17.97
2019-04-04T05:01:58.239Z,19.30
2019-04-04T05:04:23.771Z,19.47
2019-04-04T05:06:49.539Z,17.63
2019-04-04T05:09:15.141Z,19.50
2019-04-04T05:11:50.216Z,19.37
2019-04-04T05:14:16.011Z,19.33
2019-04-04T05:16:41.786Z,19.80
2019-04-04T05:19:07.326Z,21.03
2019-04-04T05:21:34.599Z,20.20
2019-04-04T05:24:00.238Z,21.30
2019-04-04T05:26:25.822Z,21.10
2019-04-04T05:28:52.640Z,21.30
2019-04-04T05:31:18.790Z,21.87
2019-04-04T05:33:44.418Z,21.60
2019-04-04T05:36:10.008Z,22.87
2019-04-04T05:38:35.668Z,22.87
2019-04-04T05:41:01.302Z,22.70
2019-04-04T05:43:26.851Z,23.00
2019-04-04T05:45:52.508Z,22.10
2019-04-04T05:48:18.034Z,23.00
2019-04-04T05:50:44.294Z,22.93
2019-04-04T05:53:09.931Z,22.77
2019-04-04T05:55:35.462Z,21.30
2019-04-04T05:58:01.007Z,21.07
2019-04-04T06:00:27.381Z,20.80
2019-04-04T06:02:53.615Z,22.37
2019-04-04T06:05:19.175Z,23.17
2019-04-04T06:07:44.823Z,23.13
2019-04-04T06:10:12.211Z,22.70
2019-04-04T06:12:38.056Z,22.83
2019-04-04T06:15:04.251Z,21.97
2019-04-04T06:17:29.859Z,24.43
2019-04-04T06:19:55.522Z,21.97
2019-04-04T06:22:21.739Z,21.70
2019-04-04T06:24:47.386Z,22.23
2019-04-04T06:27:12.953Z,22.60
2019-04-04T06:29:38.503Z,21.93
2019-04-04T06:32:04.155Z,22.10
2019-04-04T06:34:29.835Z,24.83
2019-04-04T06:36:55.450Z,24.27
2019-04-04T06:39:21.012Z,23.03
2019-04-04T06:41:46.534Z,22.07
2019-04-04T06:44:13.126Z,21.20
2019-04-04T06:46:39.195Z,21.33
2019-04-04T06:49:05.101Z,21.07
2019-04-04T06:51:30.755Z,19.40
2019-04-04T06:53:56.291Z,18.70
2019-04-04T06:56:22.125Z,19.10
2019-04-04T06:58:47.745Z,19.03
2019-04-04T07:01:13.336Z,16.93
2019-04-04T07:03:38.868Z,16.90
2019-04-04T07:06:04.482Z,16.87
2019-04-04T07:08:30.143Z,15.70
2019-04-04T07:10:58.169Z,15.60
2019-04-04T07:13:27.246Z,16.40
2019-04-04T07:16:05.542Z,14.53
2019-04-04T07:18:18.499Z,14.00
2019-04-04T07:20:48.034Z,14.50
2019-04-04T07:23:14.336Z,12.80
2019-04-04T07:25:40.240Z,14.97
2019-04-04T07:28:05.878Z,13.83
2019-04-04T07:30:31.563Z,13.27
2019-04-04T07:32:57.156Z,12.43
2019-04-04T07:35:22.684Z,13.97
2019-04-04T07:37:48.295Z,15.50
2019-04-04T07:40:13.803Z,12.90
2019-04-04T07:42:40.360Z,13.00
2019-04-04T07:45:06.087Z,12.80
2019-04-04T07:47:31.623Z,12.80
2019-04-04T07:49:57.187Z,14.83
2019-04-04T07:52:22.711Z,14.00
2019-04-04T07:54:48.307Z,14.93
2019-04-04T07:57:13.839Z,14.80
2019-04-04T07:59:39.419Z,16.40
2019-04-04T08:02:05.003Z,15.00
2019-04-04T08:04:30.532Z,13.70
2019-04-04T08:06:56.067Z,12.73
2019-04-04T08:09:21.599Z,10.97
2019-04-04T08:11:47.150Z,11.37
2019-04-04T08:14:12.704Z,11.50
2019-04-04T08:16:38.370Z,12.03
2019-04-04T08:19:03.900Z,13.30
2019-04-04T08:21:30.475Z,13.40
2019-04-04T08:23:55.999Z,12.70
2019-04-04T08:26:21.520Z,13.40
2019-04-04T08:28:47.062Z,13.50
2019-04-04T08:31:13.593Z,13.67
2019-04-04T08:33:39.156Z,14.37
2019-04-04T08:36:06.335Z,14.43
2019-04-04T08:38:32.246Z,14.03
2019-04-04T08:40:57.832Z,14.93
2019-04-04T08:43:23.428Z,14.60
2019-04-04T08:45:49.043Z,14.20
2019-04-04T08:48:14.691Z,14.17
2019-04-04T08:50:40.209Z,15.40
2019-04-04T08:53:05.793Z,14.30
2019-04-04T08:55:31.345Z,15.10
2019-04-04T08:57:56.899Z,15.30
2019-04-04T09:00:22.456Z,15.47
2019-04-04T09:02:48.073Z,13.87
2019-04-04T09:05:13.637Z,14.73
2019-04-04T09:07:39.400Z,14.43
2019-04-04T09:10:06.512Z,14.00
2019-04-04T09:12:33.019Z,13.03
2019-04-04T09:14:58.720Z,13.07
2019-04-04T09:17:24.271Z,14.47
2019-04-04T09:19:49.808Z,14.67
2019-04-04T09:22:15.451Z,15.77
2019-04-04T09:24:40.980Z,15.30
2019-04-04T09:27:06.555Z,16.17
2019-04-04T09:29:32.273Z,16.00
2019-04-04T09:31:58.054Z,14.33
2019-04-04T09:34:23.571Z,14.40
2019-04-04T09:36:49.103Z,15.30
2019-04-04T09:39:14.703Z,14.90
2019-04-04T09:41:40.243Z,14.97
2019-04-04T09:44:06.282Z,15.77
2019-04-04T09:46:31.933Z,15.73
2019-04-04T09:48:57.453Z,15.27
2019-04-04T09:51:23.264Z,14.80
2019-04-04T09:53:53.257Z,15.10
2019-04-04T09:56:16.237Z,16.60
2019-04-04T09:58:41.920Z,16.03
2019-04-04T10:01:07.609Z,15.77
2019-04-04T10:03:33.223Z,16.63
2019-04-04T10:05:59.058Z,15.33
2019-04-04T10:08:24.596Z,15.27
2019-04-04T10:10:50.158Z,15.33
2019-04-04T10:13:15.785Z,14.23
2019-04-04T10:15:41.643Z,16.67
2019-04-04T10:18:07.253Z,15.23
2019-04-04T10:20:32.795Z,15.67
2019-04-04T10:22:58.348Z,16.47
2019-04-04T10:25:24.095Z,17.20
2019-04-04T10:27:49.727Z,16.17
2019-04-04T10:30:16.027Z,15.70
2019-04-04T10:32:41.560Z,17.40
2019-04-04T10:35:08.545Z,17.13
2019-04-04T10:37:34.088Z,14.77
2019-04-04T10:39:59.609Z,15.00
2019-04-04T10:42:25.145Z,15.63
2019-04-04T10:44:50.678Z,14.23
2019-04-04T10:47:16.217Z,15.37
2019-04-04T10:49:41.789Z,13.37
2019-04-04T10:52:07.324Z,14.00
2019-04-04T10:54:32.844Z,14.27
2019-04-04T10:56:58.379Z,14.60
2019-04-04T10:59:23.948Z,13.67
2019-04-04T11:01:49.485Z,13.30
2019-04-04T11:04:15.007Z,13.40
2019-04-04T11:06:40.658Z,13.80
2019-04-04T11:09:06.486Z,14.77
2019-04-04T11:11:32.137Z,13.10
2019-04-04T11:13:57.996Z,13.50
2019-04-04T11:16:30.096Z,12.70
2019-04-04T11:18:50.989Z,13.50
2019-04-04T11:21:17.564Z,12.83
2019-04-04T11:23:43.202Z,15.30
2019-04-04T11:26:08.795Z,14.53
2019-04-04T11:28:34.350Z,15.37
2019-04-04T11:30:59.915Z,15.70
2019-04-04T11:33:25.693Z,14.10
2019-04-04T11:35:51.256Z,14.30
2019-04-04T11:38:16.776Z,13.90
2019-04-04T11:40:42.360Z,15.23
2019-04-04T11:43:08.168Z,14.83
2019-04-04T11:45:33.779Z,15.20
2019-04-04T11:47:59.298Z,15.07
2019-04-04T11:50:25.107Z,16.03
2019-04-04T11:52:50.704Z,16.93
2019-04-04T11:55:16.239Z,16.37
2019-04-04T11:57:41.867Z,16.60
2019-04-04T12:00:08.093Z,18.07
2019-04-04T12:02:33.725Z,16.97
2019-04-04T12:04:59.368Z,16.80
2019-04-04T12:07:25.229Z,15.80
2019-04-04T12:09:50.764Z,17.83
2019-04-04T12:12:16.282Z,16.53
2019-04-04T12:14:41.862Z,17.47
2019-04-04T12:17:07.375Z,17.37
2019-04-04T12:19:32.909Z,17.60
2019-04-04T12:21:58.555Z,16.30
2019-04-04T12:24:24.254Z,17.70
2019-04-04T12:26:49.826Z,16.70
2019-04-04T12:29:15.364Z,16.43
2019-04-04T12:31:40.934Z,17.40
2019-04-04T12:34:06.563Z,16.80
2019-04-04T12:36:32.135Z,17.23
2019-04-04T12:38:57.672Z,17.40
2019-04-04T12:41:23.263Z,16.23
2019-04-04T12:43:48.799Z,17.37
2019-04-04T12:46:14.452Z,17.93
2019-04-04T12:48:41.236Z,17.33
2019-04-04T12:51:06.778Z,17.87
2019-04-04T12:53:32.827Z,17.13
2019-04-04T12:55:58.715Z,17.80
2019-04-04T12:58:24.290Z,17.50
2019-04-04T13:00:49.826Z,16.90
2019-04-04T13:03:15.370Z,18.67
2019-04-04T13:05:40.967Z,16.60
2019-04-04T13:08:06.651Z,15.50
2019-04-04T13:10:33.523Z,16.30
2019-04-04T13:12:59.369Z,18.43
2019-04-04T13:15:24.935Z,15.17
2019-04-04T13:17:50.561Z,17.00
2019-04-04T13:20:16.357Z,16.10
2019-04-04T13:22:41.942Z,16.83
2019-04-04T13:25:07.845Z,16.20
2019-04-04T13:27:33.407Z,15.80
2019-04-04T13:29:59.971Z,17.10
2019-04-04T13:32:25.627Z,17.53
2019-04-04T13:34:59.284Z,17.00
2019-04-04T13:37:18.762Z,17.50
2019-04-04T13:39:44.396Z,17.20
2019-04-04T13:42:10.259Z,18.87
2019-04-04T13:44:40.112Z,19.30
2019-04-04T13:47:05.778Z,19.20
2019-04-04T13:49:31.334Z,17.60
2019-04-04T13:51:56.933Z,19.10
2019-04-04T13:54:22.615Z,17.93
2019-04-04T13:56:48.226Z,18.40
2019-04-04T13:59:13.783Z,19.53
2019-04-04T14:01:42.009Z,19.00
2019-04-04T14:04:06.910Z,19.00
2019-04-04T14:06:33.449Z,19.30
2019-04-04T14:08:58.977Z,19.50
2019-04-04T14:11:24.572Z,18.27
2019-04-04T14:13:50.100Z,17.87
2019-04-04T14:16:15.625Z,17.17
2019-04-04T14:18:44.732Z,16.70
2019-04-04T14:21:10.193Z,17.17
2019-04-04T14:23:35.746Z,17.50
2019-04-04T14:26:01.824Z,15.70
2019-04-04T14:28:28.573Z,17.10
2019-04-04T14:30:56.120Z,16.57
2019-04-04T14:33:21.641Z,16.50
2019-04-04T14:35:47.177Z,16.20
2019-04-04T14:38:12.725Z,17.00
2019-04-04T14:40:38.254Z,15.53
2019-04-04T14:43:03.906Z,16.50
2019-04-04T14:45:29.432Z,16.33
2019-04-04T14:47:54.982Z,17.70
2019-04-04T14:50:20.743Z,18.13
2019-04-04T14:52:46.355Z,21.07
2019-04-04T14:55:11.898Z,18.87
2019-04-04T14:57:37.438Z,18.60
2019-04-04T15:00:05.300Z,18.90
2019-04-04T15:02:31.156Z,19.00
2019-04-04T15:04:57.059Z,18.50
2019-04-04T15:07:22.566Z,18.00
2019-04-04T15:09:48.118Z,19.23
2019-04-04T15:12:13.763Z,18.00
2019-04-04T15:14:39.484Z,19.20
2019-04-04T15:17:05.083Z,20.50
2019-04-04T15:19:31.641Z,18.90
2019-04-04T15:21:57.219Z,19.33
2019-04-04T15:24:22.790Z,19.77
2019-04-04T15:26:48.539Z,18.20
2019-04-04T15:29:14.171Z,20.50
2019-04-04T15:31:39.690Z,21.87
2019-04-04T15:34:05.208Z,22.63
2019-04-04T15:36:30.786Z,22.60
2019-04-04T15:38:56.331Z,21.70
2019-04-04T15:41:21.864Z,22.20
2019-04-04T15:43:47.405Z,22.37
2019-04-04T15:46:13.959Z,50.30
2019-04-04T15:48:39.494Z,22.47
2019-04-04T15:51:05.140Z,20.97
2019-04-04T15:53:30.652Z,20.07
2019-04-04T15:55:56.183Z,21.80
2019-04-04T15:58:21.725Z,21.47
2019-04-04T16:00:47.258Z,23.33
2019-04-04T16:03:12.797Z,23.57
2019-04-04T16:05:38.957Z,22.50
2019-04-04T16:08:04.502Z,21.40
2019-04-04T16:10:30.032Z,22.50
2019-04-04T16:13:03.688Z,21.90
2019-04-04T16:15:35.063Z,23.00
2019-04-04T16:18:01.769Z,22.50
2019-04-04T16:20:28.273Z,22.03
2019-04-04T16:22:53.778Z,23.37
2019-04-04T16:25:19.324Z,22.13
2019-04-04T16:27:44.980Z,22.97
2019-04-04T16:30:11.248Z,23.43
2019-04-04T16:32:36.779Z,21.90
2019-04-04T16:35:03.271Z,22.10
2019-04-04T16:37:29.029Z,21.93
2019-04-04T16:39:54.626Z,21.90
2019-04-04T16:42:21.204Z,21.83
2019-04-04T16:44:46.722Z,19.63
2019-04-04T16:47:12.252Z,18.00
2019-04-04T16:49:38.394Z,17.07
2019-04-04T16:52:04.117Z,17.53
2019-04-04T16:54:29.748Z,16.67
2019-04-04T16:56:55.283Z,16.77
2019-04-04T16:59:21.052Z,15.80
2019-04-04T17:01:46.874Z,21.20
2019-04-04T17:04:12.420Z,19.10
2019-04-04T17:06:37.998Z,16.30
2019-04-04T17:09:04.802Z,15.77
2019-04-04T17:11:30.555Z,16.77
2019-04-04T17:13:56.116Z,16.07
2019-04-04T17:16:21.648Z,16.20
2019-04-04T17:18:47.198Z,15.07
2019-04-04T17:21:12.750Z,14.20
2019-04-04T17:23:38.386Z,13.40
2019-04-04T17:26:03.951Z,13.83
2019-04-04T17:28:29.634Z,15.37
2019-04-04T17:30:55.483Z,14.27
2019-04-04T17:33:21.217Z,14.37
2019-04-04T17:35:46.759Z,14.00
2019-04-04T17:38:12.360Z,12.80
2019-04-04T17:40:38.287Z,13.73
2019-04-04T17:43:03.822Z,14.00
2019-04-04T17:45:29.503Z,13.83
2019-04-04T17:47:55.712Z,13.30
2019-04-04T17:50:21.845Z,14.07
2019-04-04T17:52:48.138Z,14.27
2019-04-04T17:55:13.971Z,13.43
2019-04-04T17:57:39.820Z,14.93
2019-04-04T18:00:06.271Z,15.53
2019-04-04T18:02:33.743Z,15.33
2019-04-04T18:05:01.900Z,16.00
2019-04-04T18:07:28.808Z,15.87
2019-04-04T18:09:54.766Z,14.87
2019-04-04T18:12:20.323Z,13.40
2019-04-04T18:14:45.869Z,13.73
2019-04-04T18:17:11.682Z,13.60
2019-04-04T18:19:37.310Z,13.10
2019-04-04T18:22:03.071Z,13.93
2019-04-04T18:24:28.627Z,12.87
2019-04-04T18:26:55.209Z,11.53
2019-04-04T18:29:21.045Z,12.67
2019-04-04T18:31:46.733Z,12.57
2019-04-04T18:34:12.283Z,13.23
2019-04-04T18:36:38.223Z,13.90
2019-04-04T18:39:05.363Z,13.80
2019-04-04T18:41:31.134Z,13.83
2019-04-04T18:43:56.669Z,13.70
2019-04-04T18:46:22.389Z,14.77
2019-04-04T18:48:48.601Z,13.47
2019-04-04T18:51:14.830Z,15.50
2019-04-04T18:53:40.453Z,17.70
2019-04-04T18:56:06.099Z,15.30
2019-04-04T18:58:31.746Z,15.50
2019-04-04T19:00:57.276Z,16.43
2019-04-04T19:03:23.030Z,15.60
2019-04-04T19:05:48.558Z,15.03
2019-04-04T19:08:14.160Z,15.07
2019-04-04T19:10:46.910Z,16.13
2019-04-04T19:13:12.493Z,15.97
2019-04-04T19:15:38.091Z,15.70
2019-04-04T19:18:03.737Z,15.13
2019-04-04T19:20:29.323Z,16.30
2019-04-04T19:22:54.899Z,16.17
2019-04-04T19:25:20.439Z,17.90
2019-04-04T19:27:46.049Z,16.13
2019-04-04T19:30:11.767Z,17.80
2019-04-04T19:32:37.389Z,18.20
2019-04-04T19:35:04.524Z,17.33
2019-04-04T19:37:30.301Z,18.63
2019-04-04T19:39:55.845Z,19.60
2019-04-04T19:42:21.531Z,17.47
2019-04-04T19:44:53.271Z,20.07
2019-04-04T19:47:17.952Z,20.30
2019-04-04T19:49:43.764Z,19.83
2019-04-04T19:52:10.816Z,20.03
2019-04-04T19:54:36.430Z,19.53
2019-04-04T19:57:02.121Z,20.10
2019-04-04T19:59:27.710Z,20.80
2019-04-04T20:01:53.447Z,20.57
2019-04-04T20:04:21.824Z,20.87
2019-04-04T20:06:47.634Z,20.77
2019-04-04T20:09:13.251Z,20.70
2019-04-04T20:11:40.550Z,19.43
2019-04-04T20:14:06.630Z,19.80
2019-04-04T20:16:32.325Z,20.83
2019-04-04T20:18:58.056Z,20.23
2019-04-04T20:21:23.629Z,21.70
2019-04-04T20:23:49.395Z,19.70
2019-04-04T20:26:14.926Z,20.60
2019-04-04T20:28:40.871Z,19.00
2019-04-04T20:31:06.456Z,19.83
2019-04-04T20:33:32.119Z,20.50
2019-04-04T20:35:57.728Z,20.40
2019-04-04T20:38:23.301Z,21.40
2019-04-04T20:40:48.908Z,21.50
2019-04-04T20:43:14.501Z,23.00
2019-04-04T20:45:40.114Z,23.00
2019-04-04T20:48:05.645Z,21.27
2019-04-04T20:50:31.445Z,23.30
2019-04-04T20:52:56.968Z,23.10
2019-04-04T20:55:22.866Z,23.73
2019-04-04T20:57:48.494Z,24.03
2019-04-04T21:00:15.035Z,25.77
2019-04-04T21:02:40.627Z,25.13
2019-04-04T21:05:06.280Z,23.20
2019-04-04T21:07:31.816Z,24.13
2019-04-04T21:09:57.352Z,25.90
2019-04-04T21:12:22.898Z,24.07
2019-04-04T21:14:48.452Z,26.93
2019-04-04T21:17:14.130Z,25.23
2019-04-04T21:19:39.737Z,29.10
2019-04-04T21:22:05.291Z,27.27
2019-04-04T21:24:30.859Z,27.77
2019-04-04T21:26:56.372Z,26.93
2019-04-04T21:29:21.941Z,27.57
2019-04-04T21:31:47.466Z,27.97
2019-04-04T21:34:13.005Z,28.67
2019-04-04T21:36:38.547Z,27.90
2019-04-04T21:39:05.227Z,29.60
2019-04-04T21:41:30.763Z,30.83
2019-04-04T21:44:07.855Z,29.30
2019-04-04T21:46:23.797Z,27.33
2019-04-04T21:48:49.338Z,27.30
2019-04-04T21:51:14.895Z,29.10
2019-04-04T21:53:40.433Z,27.03
2019-04-04T21:56:05.975Z,28.27
2019-04-04T21:58:31.560Z,29.17
2019-04-04T22:00:57.182Z,28.60
2019-04-04T22:03:22.812Z,27.47
2019-04-04T22:05:48.534Z,28.07
2019-04-04T22:08:14.067Z,28.13
2019-04-04T22:10:39.624Z,24.90
2019-04-04T22:13:05.290Z,28.60
2019-04-04T22:15:30.870Z,24.47
2019-04-04T22:17:56.479Z,25.03
2019-04-04T22:20:22.046Z,25.07
2019-04-04T22:22:47.570Z,25.13
2019-04-04T22:25:13.109Z,23.93
2019-04-04T22:27:38.677Z,22.60
2019-04-04T22:30:05.313Z,23.70
2019-04-04T22:32:30.872Z,23.83
2019-04-04T22:34:56.422Z,24.30
2019-04-04T22:37:21.963Z,25.70
2019-04-04T22:39:47.653Z,26.63
2019-04-04T22:42:13.237Z,26.93
2019-04-04T22:44:38.743Z,28.00
2019-04-04T22:47:04.286Z,26.30
2019-04-04T22:49:30.009Z,28.43
2019-04-04T22:51:55.555Z,28.27
2019-04-04T22:54:21.104Z,30.10
2019-04-04T22:56:46.683Z,30.63
2019-04-04T22:59:12.229Z,31.77
2019-04-04T23:01:37.763Z,32.23
2019-04-04T23:04:03.312Z,32.77
2019-04-04T23:06:28.905Z,33.93
2019-04-04T23:08:54.433Z,35.00
2019-04-04T23:11:19.991Z,33.80
2019-04-04T23:13:45.561Z,32.80
2019-04-04T23:16:11.103Z,35.53
2019-04-04T23:18:36.755Z,38.80
2019-04-04T23:21:02.581Z,39.80
2019-04-04T23:23:28.143Z,36.67
2019-04-04T23:25:53.688Z,38.70
2019-04-04T23:28:19.266Z,38.97
2019-04-04T23:30:44.890Z,38.00
2019-04-04T23:33:10.526Z,37.83
2019-04-04T23:35:36.050Z,39.33
2019-04-04T23:38:01.824Z,41.97
2019-04-04T23:40:27.387Z,39.90
2019-04-04T23:42:52.966Z,41.90
2019-04-04T23:45:18.540Z,42.73
2019-04-04T23:47:44.193Z,40.70
2019-04-04T23:50:09.992Z,43.33
2019-04-04T23:52:35.527Z,45.30
2019-04-04T23:55:03.008Z,46.07
2019-04-04T23:57:28.518Z,44.93
2019-04-04T23:59:54.074Z,46.00
